sensor_id;sensor_type;location;lat;lon;timestamp;temperature;humidity
23271;DHT22;11804;51.118;17.058;2023-07-08T00:01:20;19.10;93.00
23271;DHT22;11804;51.118;17.058;2023-07-08T00:03:48;19.10;93.40
23271;DHT22;11804;51.118;17.058;2023-07-08T00:06:19;19.10;93.60
23271;DHT22;11804;51.118;17.058;2023-07-08T00:08:47;19.10;93.60
23271;DHT22;11804;51.118;17.058;2023-07-08T00:11:15;19.20;94.10
23271;DHT22;11804;51.118;17.058;2023-07-08T00:13:43;19.20;94.60
23271;DHT22;11804;51.118;17.058;2023-07-08T00:16:13;19.10;94.90
23271;DHT22;11804;51.118;17.058;2023-07-08T00:18:44;19.10;95.10
23271;DHT22;11804;51.118;17.058;2023-07-08T00:21:15;19.10;95.70
23271;DHT22;11804;51.118;17.058;2023-07-08T00:23:48;19.10;96.10
23271;DHT22;11804;51.118;17.058;2023-07-08T00:26:24;19.00;95.90
23271;DHT22;11804;51.118;17.058;2023-07-08T00:28:53;18.90;96.70
23271;DHT22;11804;51.118;17.058;2023-07-08T00:31:22;18.80;98.20
23271;DHT22;11804;51.118;17.058;2023-07-08T00:33:54;18.80;98.80
23271;DHT22;11804;51.118;17.058;2023-07-08T00:36:23;18.80;99.10
23271;DHT22;11804;51.118;17.058;2023-07-08T00:38:52;18.80;99.00
23271;DHT22;11804;51.118;17.058;2023-07-08T00:41:28;18.80;98.60
23271;DHT22;11804;51.118;17.058;2023-07-08T00:43:55;18.80;98.90
23271;DHT22;11804;51.118;17.058;2023-07-08T00:46:33;18.80;99.20
23271;DHT22;11804;51.118;17.058;2023-07-08T00:49:23;18.50;99.90
23271;DHT22;11804;51.118;17.058;2023-07-08T00:51:48;18.10;99.90
23271;DHT22;11804;51.118;17.058;2023-07-08T00:54:18;18.10;99.90
23271;DHT22;11804;51.118;17.058;2023-07-08T01:01:54;18.20;99.90
23271;DHT22;11804;51.118;17.058;2023-07-08T01:06:58;18.10;99.90
23271;DHT22;11804;51.118;17.058;2023-07-08T01:09:35;18.10;99.90
23271;DHT22;11804;51.118;17.058;2023-07-08T01:12:05;18.00;99.90
23271;DHT22;11804;51.118;17.058;2023-07-08T01:14:35;18.00;99.90
23271;DHT22;11804;51.118;17.058;2023-07-08T01:17:03;18.00;99.90
23271;DHT22;11804;51.118;17.058;2023-07-08T01:19:31;18.00;99.90
23271;DHT22;11804;51.118;17.058;2023-07-08T01:22:07;18.10;99.90
23271;DHT22;11804;51.118;17.058;2023-07-08T01:24:42;18.10;99.90
23271;DHT22;11804;51.118;17.058;2023-07-08T01:27:13;18.00;99.90
23271;DHT22;11804;51.118;17.058;2023-07-08T01:29:41;17.90;99.90
23271;DHT22;11804;51.118;17.058;2023-07-08T01:32:11;17.60;99.90
23271;DHT22;11804;51.118;17.058;2023-07-08T01:34:41;17.50;99.90
23271;DHT22;11804;51.118;17.058;2023-07-08T01:37:10;17.50;99.90
23271;DHT22;11804;51.118;17.058;2023-07-08T01:39:39;17.60;99.90
23271;DHT22;11804;51.118;17.058;2023-07-08T01:42:07;17.60;99.90
23271;DHT22;11804;51.118;17.058;2023-07-08T01:44:36;17.50;99.90
23271;DHT22;11804;51.118;17.058;2023-07-08T01:49:36;17.10;99.90
23271;DHT22;11804;51.118;17.058;2023-07-08T01:52:05;16.80;99.90
23271;DHT22;11804;51.118;17.058;2023-07-08T01:54:33;16.60;99.90
23271;DHT22;11804;51.118;17.058;2023-07-08T01:57:01;16.60;99.90
23271;DHT22;11804;51.118;17.058;2023-07-08T01:59:29;16.50;99.90
23271;DHT22;11804;51.118;17.058;2023-07-08T02:01:57;16.40;99.90
23271;DHT22;11804;51.118;17.058;2023-07-08T02:04:25;16.40;99.90
23271;DHT22;11804;51.118;17.058;2023-07-08T02:06:56;16.40;99.90
23271;DHT22;11804;51.118;17.058;2023-07-08T02:09:25;16.60;99.90
23271;DHT22;11804;51.118;17.058;2023-07-08T02:11:53;16.60;99.90
23271;DHT22;11804;51.118;17.058;2023-07-08T02:14:21;16.70;99.90
23271;DHT22;11804;51.118;17.058;2023-07-08T02:16:49;16.80;99.90
23271;DHT22;11804;51.118;17.058;2023-07-08T02:19:18;16.70;99.90
23271;DHT22;11804;51.118;17.058;2023-07-08T02:21:46;16.50;99.90
23271;DHT22;11804;51.118;17.058;2023-07-08T02:24:13;16.60;99.90
23271;DHT22;11804;51.118;17.058;2023-07-08T02:26:42;16.90;99.90
23271;DHT22;11804;51.118;17.058;2023-07-08T02:29:10;17.10;99.90
23271;DHT22;11804;51.118;17.058;2023-07-08T02:31:37;17.20;99.90
23271;DHT22;11804;51.118;17.058;2023-07-08T02:34:05;17.20;99.90
23271;DHT22;11804;51.118;17.058;2023-07-08T02:36:34;17.20;99.90
23271;DHT22;11804;51.118;17.058;2023-07-08T02:39:03;17.30;99.90
23271;DHT22;11804;51.118;17.058;2023-07-08T02:41:30;17.40;99.90
23271;DHT22;11804;51.118;17.058;2023-07-08T02:43:58;17.40;99.90
23271;DHT22;11804;51.118;17.058;2023-07-08T02:46:25;17.30;99.90
23271;DHT22;11804;51.118;17.058;2023-07-08T02:48:53;17.30;99.90
23271;DHT22;11804;51.118;17.058;2023-07-08T02:51:21;17.10;99.90
23271;DHT22;11804;51.118;17.058;2023-07-08T02:53:49;17.10;99.90
23271;DHT22;11804;51.118;17.058;2023-07-08T02:56:17;17.10;99.90
23271;DHT22;11804;51.118;17.058;2023-07-08T02:58:46;17.10;99.90
23271;DHT22;11804;51.118;17.058;2023-07-08T03:01:13;17.10;99.90
23271;DHT22;11804;51.118;17.058;2023-07-08T03:03:45;17.10;99.90
23271;DHT22;11804;51.118;17.058;2023-07-08T03:06:13;17.10;99.90
23271;DHT22;11804;51.118;17.058;2023-07-08T03:08:41;17.10;99.90
23271;DHT22;11804;51.118;17.058;2023-07-08T03:11:10;17.10;99.90
23271;DHT22;11804;51.118;17.058;2023-07-08T03:13:39;17.10;99.90
23271;DHT22;11804;51.118;17.058;2023-07-08T03:16:06;17.10;99.90
23271;DHT22;11804;51.118;17.058;2023-07-08T03:18:35;17.10;99.90
23271;DHT22;11804;51.118;17.058;2023-07-08T03:21:05;17.10;99.90
23271;DHT22;11804;51.118;17.058;2023-07-08T03:23:32;17.00;99.90
23271;DHT22;11804;51.118;17.058;2023-07-08T03:26:00;17.00;99.90
23271;DHT22;11804;51.118;17.058;2023-07-08T03:28:28;17.10;99.90
23271;DHT22;11804;51.118;17.058;2023-07-08T03:30:55;17.60;99.90
23271;DHT22;11804;51.118;17.058;2023-07-08T03:33:23;18.70;99.90
23271;DHT22;11804;51.118;17.058;2023-07-08T03:35:50;19.80;98.90
23271;DHT22;11804;51.118;17.058;2023-07-08T03:38:18;20.50;92.90
23271;DHT22;11804;51.118;17.058;2023-07-08T03:40:46;20.50;91.60
23271;DHT22;11804;51.118;17.058;2023-07-08T03:43:13;20.50;90.30
23271;DHT22;11804;51.118;17.058;2023-07-08T03:45:41;20.70;90.60
23271;DHT22;11804;51.118;17.058;2023-07-08T03:48:11;21.00;84.30
23271;DHT22;11804;51.118;17.058;2023-07-08T03:50:39;21.30;81.20
23271;DHT22;11804;51.118;17.058;2023-07-08T03:53:08;21.90;77.50
23271;DHT22;11804;51.118;17.058;2023-07-08T03:55:36;22.40;74.10
23271;DHT22;11804;51.118;17.058;2023-07-08T03:58:03;22.70;71.50
23271;DHT22;11804;51.118;17.058;2023-07-08T04:00:31;23.90;65.60
23271;DHT22;11804;51.118;17.058;2023-07-08T04:02:59;24.20;62.20
23271;DHT22;11804;51.118;17.058;2023-07-08T04:05:26;24.80;59.30
23271;DHT22;11804;51.118;17.058;2023-07-08T04:07:55;25.50;57.10
23271;DHT22;11804;51.118;17.058;2023-07-08T04:10:23;25.80;56.10
23271;DHT22;11804;51.118;17.058;2023-07-08T04:12:50;26.00;55.40
23271;DHT22;11804;51.118;17.058;2023-07-08T04:15:18;26.20;54.40
23271;DHT22;11804;51.118;17.058;2023-07-08T04:17:48;26.30;54.00
23271;DHT22;11804;51.118;17.058;2023-07-08T04:20:18;27.20;52.00
23271;DHT22;11804;51.118;17.058;2023-07-08T04:22:46;27.20;50.60
23271;DHT22;11804;51.118;17.058;2023-07-08T04:25:14;27.30;49.80
23271;DHT22;11804;51.118;17.058;2023-07-08T04:27:42;27.20;49.70
23271;DHT22;11804;51.118;17.058;2023-07-08T04:30:22;27.20;48.80
23271;DHT22;11804;51.118;17.058;2023-07-08T04:32:50;27.40;48.50
23271;DHT22;11804;51.118;17.058;2023-07-08T04:35:18;27.30;47.90
23271;DHT22;11804;51.118;17.058;2023-07-08T04:37:46;27.30;49.70
23271;DHT22;11804;51.118;17.058;2023-07-08T04:40:16;27.40;48.00
23271;DHT22;11804;51.118;17.058;2023-07-08T04:42:45;27.20;47.80
23271;DHT22;11804;51.118;17.058;2023-07-08T04:45:15;26.70;49.00
23271;DHT22;11804;51.118;17.058;2023-07-08T04:47:44;26.80;49.00
23271;DHT22;11804;51.118;17.058;2023-07-08T04:50:14;26.50;49.50
23271;DHT22;11804;51.118;17.058;2023-07-08T04:52:42;26.60;49.70
23271;DHT22;11804;51.118;17.058;2023-07-08T04:55:09;27.30;49.40
23271;DHT22;11804;51.118;17.058;2023-07-08T04:57:37;28.10;47.70
23271;DHT22;11804;51.118;17.058;2023-07-08T05:00:06;27.70;48.70
23271;DHT22;11804;51.118;17.058;2023-07-08T05:02:36;28.20;47.90
23271;DHT22;11804;51.118;17.058;2023-07-08T05:05:04;28.90;46.30
23271;DHT22;11804;51.118;17.058;2023-07-08T05:07:32;29.30;44.80
23271;DHT22;11804;51.118;17.058;2023-07-08T05:10:00;29.80;44.10
23271;DHT22;11804;51.118;17.058;2023-07-08T05:12:28;29.40;44.70
23271;DHT22;11804;51.118;17.058;2023-07-08T05:14:56;29.40;43.80
23271;DHT22;11804;51.118;17.058;2023-07-08T05:17:24;29.60;44.00
23271;DHT22;11804;51.118;17.058;2023-07-08T05:19:51;28.20;46.20
23271;DHT22;11804;51.118;17.058;2023-07-08T05:22:20;28.00;46.80
23271;DHT22;11804;51.118;17.058;2023-07-08T05:24:49;28.00;47.00
23271;DHT22;11804;51.118;17.058;2023-07-08T05:27:19;28.30;46.80
23271;DHT22;11804;51.118;17.058;2023-07-08T05:29:47;29.90;43.10
23271;DHT22;11804;51.118;17.058;2023-07-08T05:32:15;30.50;41.70
23271;DHT22;11804;51.118;17.058;2023-07-08T05:34:43;30.70;41.20
23271;DHT22;11804;51.118;17.058;2023-07-08T05:37:12;31.80;40.10
23271;DHT22;11804;51.118;17.058;2023-07-08T05:39:40;29.40;42.60
23271;DHT22;11804;51.118;17.058;2023-07-08T05:42:08;28.10;45.00
23271;DHT22;11804;51.118;17.058;2023-07-08T05:44:35;27.70;46.40
23271;DHT22;11804;51.118;17.058;2023-07-08T05:47:04;27.70;46.30
23271;DHT22;11804;51.118;17.058;2023-07-08T05:49:31;27.80;45.70
23271;DHT22;11804;51.118;17.058;2023-07-08T05:51:59;28.10;44.90
23271;DHT22;11804;51.118;17.058;2023-07-08T05:54:28;28.80;45.00
23271;DHT22;11804;51.118;17.058;2023-07-08T05:56:56;29.10;43.30
23271;DHT22;11804;51.118;17.058;2023-07-08T05:59:23;29.70;42.90
23271;DHT22;11804;51.118;17.058;2023-07-08T06:01:51;30.40;40.70
23271;DHT22;11804;51.118;17.058;2023-07-08T06:04:18;30.70;40.10
23271;DHT22;11804;51.118;17.058;2023-07-08T06:06:47;31.30;38.90
23271;DHT22;11804;51.118;17.058;2023-07-08T06:09:15;32.20;36.60
23271;DHT22;11804;51.118;17.058;2023-07-08T06:11:43;33.10;35.50
23271;DHT22;11804;51.118;17.058;2023-07-08T06:14:10;32.30;35.90
23271;DHT22;11804;51.118;17.058;2023-07-08T06:16:38;31.60;37.10
23271;DHT22;11804;51.118;17.058;2023-07-08T06:19:06;30.20;40.20
23271;DHT22;11804;51.118;17.058;2023-07-08T06:21:34;29.30;42.10
23271;DHT22;11804;51.118;17.058;2023-07-08T06:24:01;28.60;42.70
23271;DHT22;11804;51.118;17.058;2023-07-08T06:26:29;30.30;42.50
23271;DHT22;11804;51.118;17.058;2023-07-08T06:28:56;32.60;38.10
23271;DHT22;11804;51.118;17.058;2023-07-08T06:31:24;33.00;37.10
23271;DHT22;11804;51.118;17.058;2023-07-08T06:33:51;33.60;36.20
23271;DHT22;11804;51.118;17.058;2023-07-08T06:36:19;34.20;34.70
23271;DHT22;11804;51.118;17.058;2023-07-08T06:38:47;34.60;34.30
23271;DHT22;11804;51.118;17.058;2023-07-08T06:41:14;35.00;33.00
23271;DHT22;11804;51.118;17.058;2023-07-08T06:43:42;33.70;35.30
23271;DHT22;11804;51.118;17.058;2023-07-08T06:46:09;33.10;36.20
23271;DHT22;11804;51.118;17.058;2023-07-08T06:48:37;33.20;35.40
23271;DHT22;11804;51.118;17.058;2023-07-08T06:51:04;33.70;35.30
23271;DHT22;11804;51.118;17.058;2023-07-08T06:53:32;33.30;35.00
23271;DHT22;11804;51.118;17.058;2023-07-08T06:56:00;33.50;35.30
23271;DHT22;11804;51.118;17.058;2023-07-08T06:58:29;34.50;33.80
23271;DHT22;11804;51.118;17.058;2023-07-08T07:00:56;34.80;34.10
23271;DHT22;11804;51.118;17.058;2023-07-08T07:03:24;35.40;33.20
23271;DHT22;11804;51.118;17.058;2023-07-08T07:05:52;36.10;31.90
23271;DHT22;11804;51.118;17.058;2023-07-08T07:08:20;35.90;32.30
23271;DHT22;11804;51.118;17.058;2023-07-08T07:10:47;36.10;31.20
23271;DHT22;11804;51.118;17.058;2023-07-08T07:13:15;36.60;30.80
23271;DHT22;11804;51.118;17.058;2023-07-08T07:15:43;37.90;29.70
23271;DHT22;11804;51.118;17.058;2023-07-08T07:18:10;37.10;30.30
23271;DHT22;11804;51.118;17.058;2023-07-08T07:20:38;36.70;29.50
23271;DHT22;11804;51.118;17.058;2023-07-08T07:23:05;36.70;29.30
23271;DHT22;11804;51.118;17.058;2023-07-08T07:25:34;36.90;27.60
23271;DHT22;11804;51.118;17.058;2023-07-08T07:28:02;37.60;27.80
23271;DHT22;11804;51.118;17.058;2023-07-08T07:30:30;36.40;27.90
23271;DHT22;11804;51.118;17.058;2023-07-08T07:33:01;36.10;27.80
23271;DHT22;11804;51.118;17.058;2023-07-08T07:35:29;37.00;27.70
23271;DHT22;11804;51.118;17.058;2023-07-08T07:37:56;37.30;27.60
23271;DHT22;11804;51.118;17.058;2023-07-08T07:40:24;37.50;26.80
23271;DHT22;11804;51.118;17.058;2023-07-08T07:42:52;36.90;27.30
23271;DHT22;11804;51.118;17.058;2023-07-08T07:45:19;36.30;27.50
23271;DHT22;11804;51.118;17.058;2023-07-08T07:47:48;35.90;28.10
23271;DHT22;11804;51.118;17.058;2023-07-08T07:50:16;37.40;27.40
23271;DHT22;11804;51.118;17.058;2023-07-08T07:52:43;37.30;26.50
23271;DHT22;11804;51.118;17.058;2023-07-08T07:55:11;35.90;27.70
23271;DHT22;11804;51.118;17.058;2023-07-08T07:57:45;35.90;28.20
23271;DHT22;11804;51.118;17.058;2023-07-08T08:00:14;35.20;27.50
23271;DHT22;11804;51.118;17.058;2023-07-08T08:02:41;35.30;27.70
23271;DHT22;11804;51.118;17.058;2023-07-08T08:05:09;35.00;28.10
23271;DHT22;11804;51.118;17.058;2023-07-08T08:07:37;35.40;27.30
23271;DHT22;11804;51.118;17.058;2023-07-08T08:10:05;34.90;26.90
23271;DHT22;11804;51.118;17.058;2023-07-08T08:12:33;36.00;26.00
23271;DHT22;11804;51.118;17.058;2023-07-08T08:15:00;34.50;26.20
23271;DHT22;11804;51.118;17.058;2023-07-08T08:17:28;34.20;27.90
23271;DHT22;11804;51.118;17.058;2023-07-08T08:19:55;34.60;27.30
23271;DHT22;11804;51.118;17.058;2023-07-08T08:22:23;34.70;25.80
23271;DHT22;11804;51.118;17.058;2023-07-08T08:24:50;34.20;27.40
23271;DHT22;11804;51.118;17.058;2023-07-08T08:27:18;34.50;27.70
23271;DHT22;11804;51.118;17.058;2023-07-08T08:29:46;34.60;27.00
23271;DHT22;11804;51.118;17.058;2023-07-08T08:32:13;35.90;26.30
23271;DHT22;11804;51.118;17.058;2023-07-08T08:34:42;37.10;25.60
23271;DHT22;11804;51.118;17.058;2023-07-08T08:37:11;36.50;26.00
23271;DHT22;11804;51.118;17.058;2023-07-08T08:39:39;35.90;25.40
23271;DHT22;11804;51.118;17.058;2023-07-08T08:42:57;35.30;25.80
23271;DHT22;11804;51.118;17.058;2023-07-08T08:44:40;35.60;26.10
23271;DHT22;11804;51.118;17.058;2023-07-08T08:50:04;37.00;25.00
23271;DHT22;11804;51.118;17.058;2023-07-08T08:52:31;37.40;24.20
23271;DHT22;11804;51.118;17.058;2023-07-08T08:55:00;37.40;24.20
23271;DHT22;11804;51.118;17.058;2023-07-08T08:57:36;36.20;24.30
23271;DHT22;11804;51.118;17.058;2023-07-08T09:00:03;34.90;24.90
23271;DHT22;11804;51.118;17.058;2023-07-08T09:05:11;34.60;26.10
23271;DHT22;11804;51.118;17.058;2023-07-08T09:07:45;33.80;25.30
23271;DHT22;11804;51.118;17.058;2023-07-08T09:10:50;34.20;25.80
23271;DHT22;11804;51.118;17.058;2023-07-08T09:13:35;34.70;25.50
23271;DHT22;11804;51.118;17.058;2023-07-08T09:16:12;36.60;24.00
23271;DHT22;11804;51.118;17.058;2023-07-08T09:18:43;37.10;23.40
23271;DHT22;11804;51.118;17.058;2023-07-08T09:21:19;35.50;22.70
23271;DHT22;11804;51.118;17.058;2023-07-08T09:23:46;34.60;23.60
23271;DHT22;11804;51.118;17.058;2023-07-08T09:26:17;34.40;24.10
23271;DHT22;11804;51.118;17.058;2023-07-08T09:28:46;33.70;25.20
23271;DHT22;11804;51.118;17.058;2023-07-08T09:31:30;34.30;25.10
23271;DHT22;11804;51.118;17.058;2023-07-08T09:34:21;33.90;23.80
23271;DHT22;11804;51.118;17.058;2023-07-08T09:36:44;33.80;24.40
23271;DHT22;11804;51.118;17.058;2023-07-08T09:39:15;34.30;24.80
23271;DHT22;11804;51.118;17.058;2023-07-08T09:41:45;34.30;24.70
23271;DHT22;11804;51.118;17.058;2023-07-08T09:44:27;34.10;25.60
23271;DHT22;11804;51.118;17.058;2023-07-08T09:46:58;34.60;24.10
23271;DHT22;11804;51.118;17.058;2023-07-08T09:49:36;35.30;24.20
23271;DHT22;11804;51.118;17.058;2023-07-08T09:52:04;36.80;22.50
23271;DHT22;11804;51.118;17.058;2023-07-08T09:54:32;37.30;22.50
23271;DHT22;11804;51.118;17.058;2023-07-08T09:57:16;36.20;23.00
23271;DHT22;11804;51.118;17.058;2023-07-08T09:59:49;35.30;23.50
23271;DHT22;11804;51.118;17.058;2023-07-08T10:04:56;31.70;27.20
23271;DHT22;11804;51.118;17.058;2023-07-08T10:07:24;31.50;26.90
23271;DHT22;11804;51.118;17.058;2023-07-08T10:09:55;31.50;27.80
23271;DHT22;11804;51.118;17.058;2023-07-08T10:12:24;32.70;26.50
23271;DHT22;11804;51.118;17.058;2023-07-08T10:14:58;33.70;26.20
23271;DHT22;11804;51.118;17.058;2023-07-08T10:17:29;33.20;25.40
23271;DHT22;11804;51.118;17.058;2023-07-08T10:19:57;33.20;25.20
23271;DHT22;11804;51.118;17.058;2023-07-08T10:22:37;31.60;26.00
23271;DHT22;11804;51.118;17.058;2023-07-08T10:25:15;32.00;26.70
23271;DHT22;11804;51.118;17.058;2023-07-08T10:27:51;31.60;26.50
23271;DHT22;11804;51.118;17.058;2023-07-08T10:30:20;32.30;26.40
23271;DHT22;11804;51.118;17.058;2023-07-08T10:33:00;33.00;25.40
23271;DHT22;11804;51.118;17.058;2023-07-08T10:35:27;34.00;24.90
23271;DHT22;11804;51.118;17.058;2023-07-08T10:38:38;34.40;24.70
23271;DHT22;11804;51.118;17.058;2023-07-08T10:41:13;34.90;23.90
23271;DHT22;11804;51.118;17.058;2023-07-08T10:52:45;31.10;27.30
23271;DHT22;11804;51.118;17.058;2023-07-08T10:55:17;31.70;27.40
23271;DHT22;11804;51.118;17.058;2023-07-08T11:00:43;32.20;26.60
23271;DHT22;11804;51.118;17.058;2023-07-08T11:03:19;31.70;27.40
23271;DHT22;11804;51.118;17.058;2023-07-08T11:05:50;30.70;27.40
23271;DHT22;11804;51.118;17.058;2023-07-08T11:08:26;30.60;28.00
23271;DHT22;11804;51.118;17.058;2023-07-08T11:11:00;30.00;28.00
23271;DHT22;11804;51.118;17.058;2023-07-08T11:13:29;30.40;27.80
23271;DHT22;11804;51.118;17.058;2023-07-08T11:16:07;30.40;27.60
23271;DHT22;11804;51.118;17.058;2023-07-08T11:18:39;30.40;27.90
23271;DHT22;11804;51.118;17.058;2023-07-08T11:21:18;30.70;28.40
23271;DHT22;11804;51.118;17.058;2023-07-08T11:23:52;30.40;28.00
23271;DHT22;11804;51.118;17.058;2023-07-08T11:27:37;30.30;27.60
23271;DHT22;11804;51.118;17.058;2023-07-08T11:29:25;30.30;27.70
23271;DHT22;11804;51.118;17.058;2023-07-08T11:31:51;30.00;27.40
23271;DHT22;11804;51.118;17.058;2023-07-08T11:34:20;29.90;27.90
23271;DHT22;11804;51.118;17.058;2023-07-08T11:36:49;30.10;27.60
23271;DHT22;11804;51.118;17.058;2023-07-08T11:39:33;30.30;28.10
23271;DHT22;11804;51.118;17.058;2023-07-08T11:42:21;30.50;27.50
23271;DHT22;11804;51.118;17.058;2023-07-08T11:44:41;30.50;27.20
23271;DHT22;11804;51.118;17.058;2023-07-08T11:47:32;30.50;27.30
23271;DHT22;11804;51.118;17.058;2023-07-08T11:49:56;30.50;27.30
23271;DHT22;11804;51.118;17.058;2023-07-08T11:52:24;30.00;27.60
23271;DHT22;11804;51.118;17.058;2023-07-08T11:55:12;30.10;27.80
23271;DHT22;11804;51.118;17.058;2023-07-08T11:57:42;30.30;28.40
23271;DHT22;11804;51.118;17.058;2023-07-08T12:00:16;30.40;28.20
23271;DHT22;11804;51.118;17.058;2023-07-08T12:02:51;30.70;28.00
23271;DHT22;11804;51.118;17.058;2023-07-08T12:05:28;30.70;27.50
23271;DHT22;11804;51.118;17.058;2023-07-08T12:07:50;30.70;27.90
23271;DHT22;11804;51.118;17.058;2023-07-08T12:10:26;30.90;27.90
23271;DHT22;11804;51.118;17.058;2023-07-08T12:12:54;30.90;27.90
23271;DHT22;11804;51.118;17.058;2023-07-08T12:15:32;30.90;27.90
23271;DHT22;11804;51.118;17.058;2023-07-08T12:18:13;30.90;27.40
23271;DHT22;11804;51.118;17.058;2023-07-08T12:20:52;30.80;27.50
23271;DHT22;11804;51.118;17.058;2023-07-08T12:23:23;30.90;28.30
23271;DHT22;11804;51.118;17.058;2023-07-08T12:25:52;30.80;28.10
23271;DHT22;11804;51.118;17.058;2023-07-08T12:28:21;30.80;28.20
23271;DHT22;11804;51.118;17.058;2023-07-08T12:30:50;30.70;28.10
23271;DHT22;11804;51.118;17.058;2023-07-08T12:33:29;30.70;28.30
23271;DHT22;11804;51.118;17.058;2023-07-08T12:35:57;30.70;27.40
23271;DHT22;11804;51.118;17.058;2023-07-08T12:38:37;30.80;27.30
23271;DHT22;11804;51.118;17.058;2023-07-08T12:41:11;30.60;27.70
23271;DHT22;11804;51.118;17.058;2023-07-08T12:43:39;30.50;28.00
23271;DHT22;11804;51.118;17.058;2023-07-08T12:46:09;30.60;28.00
23271;DHT22;11804;51.118;17.058;2023-07-08T12:48:39;30.60;28.10
23271;DHT22;11804;51.118;17.058;2023-07-08T12:51:14;30.60;28.30
23271;DHT22;11804;51.118;17.058;2023-07-08T12:53:38;30.70;27.70
23271;DHT22;11804;51.118;17.058;2023-07-08T12:56:06;30.70;27.60
23271;DHT22;11804;51.118;17.058;2023-07-08T12:58:45;30.70;27.60
23271;DHT22;11804;51.118;17.058;2023-07-08T13:01:20;30.50;27.40
23271;DHT22;11804;51.118;17.058;2023-07-08T13:03:45;30.40;27.90
23271;DHT22;11804;51.118;17.058;2023-07-08T13:06:17;30.60;28.20
23271;DHT22;11804;51.118;17.058;2023-07-08T13:08:45;30.70;27.70
23271;DHT22;11804;51.118;17.058;2023-07-08T13:11:18;30.60;28.10
23271;DHT22;11804;51.118;17.058;2023-07-08T13:13:55;30.60;27.90
23271;DHT22;11804;51.118;17.058;2023-07-08T13:16:26;30.60;27.60
23271;DHT22;11804;51.118;17.058;2023-07-08T13:18:53;30.60;27.70
23271;DHT22;11804;51.118;17.058;2023-07-08T13:21:21;30.60;27.80
23271;DHT22;11804;51.118;17.058;2023-07-08T13:23:51;30.60;28.00
23271;DHT22;11804;51.118;17.058;2023-07-08T13:26:21;30.60;27.40
23271;DHT22;11804;51.118;17.058;2023-07-08T13:28:49;30.20;27.50
23271;DHT22;11804;51.118;17.058;2023-07-08T13:31:19;29.70;27.60
23271;DHT22;11804;51.118;17.058;2023-07-08T13:33:55;29.60;27.60
23271;DHT22;11804;51.118;17.058;2023-07-08T13:36:35;29.80;27.80
23271;DHT22;11804;51.118;17.058;2023-07-08T13:39:08;29.70;27.80
23271;DHT22;11804;51.118;17.058;2023-07-08T13:41:37;29.70;27.60
23271;DHT22;11804;51.118;17.058;2023-07-08T13:44:07;29.80;27.70
23271;DHT22;11804;51.118;17.058;2023-07-08T13:46:38;29.70;27.70
23271;DHT22;11804;51.118;17.058;2023-07-08T13:49:24;29.60;27.60
23271;DHT22;11804;51.118;17.058;2023-07-08T13:52:08;29.60;28.40
23271;DHT22;11804;51.118;17.058;2023-07-08T13:54:41;29.50;28.20
23271;DHT22;11804;51.118;17.058;2023-07-08T13:57:11;29.50;28.40
23271;DHT22;11804;51.118;17.058;2023-07-08T13:59:39;29.40;28.40
23271;DHT22;11804;51.118;17.058;2023-07-08T14:02:18;29.50;28.20
23271;DHT22;11804;51.118;17.058;2023-07-08T14:04:47;29.40;28.00
23271;DHT22;11804;51.118;17.058;2023-07-08T14:07:20;29.60;27.70
23271;DHT22;11804;51.118;17.058;2023-07-08T14:09:48;29.80;27.70
23271;DHT22;11804;51.118;17.058;2023-07-08T14:12:16;29.90;27.80
23271;DHT22;11804;51.118;17.058;2023-07-08T14:14:44;30.10;27.90
23271;DHT22;11804;51.118;17.058;2023-07-08T14:17:15;30.20;27.70
23271;DHT22;11804;51.118;17.058;2023-07-08T14:19:42;30.20;27.60
23271;DHT22;11804;51.118;17.058;2023-07-08T14:24:43;30.20;27.10
23271;DHT22;11804;51.118;17.058;2023-07-08T14:27:11;29.70;27.40
23271;DHT22;11804;51.118;17.058;2023-07-08T14:29:41;29.40;27.60
23271;DHT22;11804;51.118;17.058;2023-07-08T14:32:18;29.60;27.50
23271;DHT22;11804;51.118;17.058;2023-07-08T14:34:41;29.70;27.40
23271;DHT22;11804;51.118;17.058;2023-07-08T14:37:14;29.60;27.40
23271;DHT22;11804;51.118;17.058;2023-07-08T14:39:44;29.40;27.80
23271;DHT22;11804;51.118;17.058;2023-07-08T14:42:17;29.40;27.50
23271;DHT22;11804;51.118;17.058;2023-07-08T14:44:46;29.50;27.80
23271;DHT22;11804;51.118;17.058;2023-07-08T14:47:18;29.60;27.40
23271;DHT22;11804;51.118;17.058;2023-07-08T14:49:46;29.60;27.50
23271;DHT22;11804;51.118;17.058;2023-07-08T14:52:14;29.60;27.70
23271;DHT22;11804;51.118;17.058;2023-07-08T14:54:41;29.50;27.70
23271;DHT22;11804;51.118;17.058;2023-07-08T14:57:11;29.50;27.90
23271;DHT22;11804;51.118;17.058;2023-07-08T14:59:40;29.50;27.70
23271;DHT22;11804;51.118;17.058;2023-07-08T15:02:21;29.70;27.90
23271;DHT22;11804;51.118;17.058;2023-07-08T15:04:49;29.80;27.70
23271;DHT22;11804;51.118;17.058;2023-07-08T15:07:18;30.00;27.60
23271;DHT22;11804;51.118;17.058;2023-07-08T15:09:46;29.90;27.40
23271;DHT22;11804;51.118;17.058;2023-07-08T15:12:14;29.60;27.70
23271;DHT22;11804;51.118;17.058;2023-07-08T15:14:42;29.40;27.80
23271;DHT22;11804;51.118;17.058;2023-07-08T15:17:14;29.30;27.80
23271;DHT22;11804;51.118;17.058;2023-07-08T15:19:44;29.30;27.80
23271;DHT22;11804;51.118;17.058;2023-07-08T15:22:12;29.50;28.20
23271;DHT22;11804;51.118;17.058;2023-07-08T15:24:39;29.80;28.30
23271;DHT22;11804;51.118;17.058;2023-07-08T15:27:09;30.00;27.90
23271;DHT22;11804;51.118;17.058;2023-07-08T15:29:38;29.90;27.70
23271;DHT22;11804;51.118;17.058;2023-07-08T15:32:13;29.90;27.80
23271;DHT22;11804;51.118;17.058;2023-07-08T15:34:42;29.60;28.50
23271;DHT22;11804;51.118;17.058;2023-07-08T15:37:10;29.50;28.70
23271;DHT22;11804;51.118;17.058;2023-07-08T15:39:38;29.30;28.60
23271;DHT22;11804;51.118;17.058;2023-07-08T15:42:11;29.40;28.60
23271;DHT22;11804;51.118;17.058;2023-07-08T15:44:39;29.50;28.70
23271;DHT22;11804;51.118;17.058;2023-07-08T15:47:11;29.60;28.40
23271;DHT22;11804;51.118;17.058;2023-07-08T15:49:38;29.70;28.30
23271;DHT22;11804;51.118;17.058;2023-07-08T15:52:06;29.60;28.90
23271;DHT22;11804;51.118;17.058;2023-07-08T15:54:37;29.70;29.00
23271;DHT22;11804;51.118;17.058;2023-07-08T15:57:07;29.80;28.90
23271;DHT22;11804;51.118;17.058;2023-07-08T15:59:34;29.70;28.80
23271;DHT22;11804;51.118;17.058;2023-07-08T16:02:11;29.50;29.20
23271;DHT22;11804;51.118;17.058;2023-07-08T16:04:35;29.40;29.10
23271;DHT22;11804;51.118;17.058;2023-07-08T16:07:02;29.40;28.60